Time;durP1;ratioP1;P1;durP2;ratioP2;P2;SDS_P1;SDS_P2;PMS_P1;PMS_P2;Temp;Humidity;BMP_temperature;BMP_pressure;BME280_temperature;BME280_humidity;BME280_pressure;Samples;Min_cycle;Max_cycle;Signal;HPM_P1;HPM_P2
2023/05/27 00:02:06;;;;;;;7.63;3.67;;;;;;;9.17;74.71;103049.16;6249004;22;20100;-80
2023/05/27 00:04:32;;;;;;;10.18;3.38;;;;;;;9.12;75.02;103055.56;6250015;22;20432;-81
2023/05/27 00:06:59;;;;;;;13.80;3.65;;;;;;;9.09;75.45;103055.56;6249805;22;20044;-81
2023/05/27 00:09:26;;;;;;;12.88;4.05;;;;;;;9.04;75.45;103056.66;6249390;22;20023;-80
2023/05/27 00:11:52;;;;;;;14.07;4.22;;;;;;;9.02;75.38;103067.66;6249752;22;20535;-81
2023/05/27 00:14:20;;;;;;;9.88;3.65;;;;;;;8.97;75.99;103057.38;6248240;22;20078;-80
2023/05/27 00:16:47;;;;;;;10.48;4.65;;;;;;;8.96;75.98;103061.19;6249044;22;20040;-80
2023/05/27 00:19:14;;;;;;;9.65;3.95;;;;;;;8.92;76.30;103062.28;6249216;22;20012;-80
2023/05/27 00:21:40;;;;;;;8.45;3.40;;;;;;;8.89;76.82;103057.72;6249566;22;20017;-80
2023/05/27 00:24:08;;;;;;;9.75;3.60;;;;;;;8.85;76.53;103054.28;6249308;22;20021;-81
2023/05/27 00:26:34;;;;;;;12.15;3.75;;;;;;;8.83;76.48;103049.34;6249833;22;20351;-80
2023/05/27 00:29:01;;;;;;;8.68;2.88;;;;;;;8.83;76.55;103049.34;6247775;22;20017;-80
2023/05/27 00:31:28;;;;;;;12.70;3.78;;;;;;;8.79;76.53;103045.16;6247021;22;20031;-80
2023/05/27 00:33:55;;;;;;;12.25;3.65;;;;;;;8.75;77.20;103055.00;6249388;22;20079;-80
2023/05/27 00:36:21;;;;;;;11.73;3.20;;;;;;;8.72;77.28;103045.88;6249616;22;20020;-80
2023/05/27 00:38:48;;;;;;;8.82;3.72;;;;;;;8.68;77.80;103042.44;6249292;22;20427;-80
2023/05/27 00:41:15;;;;;;;11.38;3.45;;;;;;;8.65;77.68;103035.97;6247834;22;20084;-80
2023/05/27 00:43:41;;;;;;;16.35;4.00;;;;;;;8.64;77.84;103039.00;6249487;22;20013;-81
2023/05/27 00:46:09;;;;;;;8.68;3.22;;;;;;;8.60;78.11;103038.22;6247824;22;20021;-81
2023/05/27 00:48:36;;;;;;;9.43;3.08;;;;;;;8.57;78.03;103031.75;6252871;22;20008;-81
2023/05/27 00:51:03;;;;;;;10.05;3.65;;;;;;;8.54;78.50;103034.38;6257275;22;20020;-80
2023/05/27 00:53:38;;;;;;;12.05;3.58;;;;;;;8.51;78.33;103030.56;6254258;22;20012;-81
2023/05/27 00:56:05;;;;;;;15.27;3.60;;;;;;;8.48;78.71;103033.19;6249513;22;20446;-80
2023/05/27 00:58:33;;;;;;;15.57;4.18;;;;;;;8.46;78.50;103027.47;6249531;22;20016;-80
2023/05/27 01:01:00;;;;;;;8.50;3.35;;;;;;;8.44;78.87;103021.78;6250289;22;20059;-80
2023/05/27 01:03:28;;;;;;;11.88;3.45;;;;;;;8.43;79.03;103020.25;6248808;22;20472;-80
2023/05/27 01:06:08;;;;;;;11.45;3.95;;;;;;;8.41;78.81;103020.63;6250668;22;20019;-80
2023/05/27 01:08:43;;;;;;;6.55;2.85;;;;;;;8.37;79.33;103014.56;6250778;22;20017;-81
2023/05/27 01:11:12;;;;;;;7.72;3.80;;;;;;;8.33;79.52;103011.88;6248882;22;20028;-80
2023/05/27 01:13:46;;;;;;;10.02;3.10;;;;;;;8.33;79.51;103024.38;6248700;22;20534;-80
2023/05/27 01:16:17;;;;;;;16.02;4.30;;;;;;;8.29;79.79;103018.25;6248574;22;20051;-80
2023/05/27 01:18:44;;;;;;;9.60;3.45;;;;;;;8.28;79.94;103014.84;6223371;22;20048;-80
2023/05/27 01:21:15;;;;;;;15.70;3.40;;;;;;;8.24;80.02;103014.03;6248550;22;20025;-80
2023/05/27 01:23:41;;;;;;;11.05;3.50;;;;;;;8.23;80.19;103019.72;6250149;22;20387;-80
2023/05/27 01:26:08;;;;;;;12.23;3.20;;;;;;;8.19;80.23;103018.94;6248656;22;20419;-81
2023/05/27 01:28:35;;;;;;;12.02;3.78;;;;;;;8.19;80.07;103021.59;6248731;22;20017;-80
2023/05/27 01:31:12;;;;;;;12.90;3.38;;;;;;;8.16;80.23;103017.78;6248058;22;20024;-81
2023/05/27 01:33:41;;;;;;;15.43;3.70;;;;;;;8.12;80.76;103019.63;6248286;22;20021;-81
2023/05/27 01:36:16;;;;;;;18.88;3.50;;;;;;;8.10;80.80;103019.22;6250009;22;20405;-81
2023/05/27 01:38:45;;;;;;;8.70;3.30;;;;;;;8.07;81.50;103019.97;6248303;22;20346;-81
2023/05/27 01:41:13;;;;;;;11.00;3.58;;;;;;;8.05;81.49;103022.22;6248085;22;20488;-81
2023/05/27 01:43:40;;;;;;;11.95;3.03;;;;;;;8.03;81.55;103019.94;6247565;22;20017;-81
2023/05/27 01:46:08;;;;;;;10.65;3.30;;;;;;;8.02;81.74;103015.75;6250098;22;20096;-81
2023/05/27 01:48:36;;;;;;;9.48;3.45;;;;;;;7.96;82.09;103014.59;6248164;22;20062;-81
2023/05/27 01:51:03;;;;;;;11.70;3.67;;;;;;;7.96;82.30;103011.19;6250218;22;20092;-81
2023/05/27 01:53:29;;;;;;;10.07;3.50;;;;;;;7.94;82.40;103013.44;6250229;22;20033;-81
2023/05/27 01:55:56;;;;;;;10.70;3.25;;;;;;;7.91;82.67;103014.91;6248379;22;20020;-81
2023/05/27 01:58:22;;;;;;;8.73;3.60;;;;;;;7.87;82.80;103016.00;6247271;22;20148;-81
2023/05/27 02:00:50;;;;;;;14.05;3.10;;;;;;;7.84;83.17;103020.16;6248359;22;20027;-81
2023/05/27 02:03:16;;;;;;;10.35;3.50;;;;;;;7.82;83.29;103019.75;6248114;22;20351;-81
2023/05/27 02:05:44;;;;;;;10.30;3.38;;;;;;;7.79;83.36;103023.13;6250022;22;20021;-81
2023/05/27 02:08:11;;;;;;;10.18;3.60;;;;;;;7.78;83.36;103026.16;6247837;22;20020;-81
2023/05/27 02:10:37;;;;;;;14.68;3.88;;;;;;;7.77;83.54;103022.72;6249176;22;20024;-82
2023/05/27 02:13:05;;;;;;;18.55;3.90;;;;;;;7.77;83.45;103036.00;6247602;22;20017;-81
2023/05/27 02:15:32;;;;;;;14.60;3.92;;;;;;;7.74;83.56;103030.66;6223229;22;20020;-82
2023/05/27 02:17:59;;;;;;;15.57;3.40;;;;;;;7.71;83.88;103034.78;6249799;22;20024;-82
2023/05/27 02:20:25;;;;;;;12.48;3.75;;;;;;;7.66;83.75;103033.22;6247864;22;20561;-82
2023/05/27 02:22:52;;;;;;;8.68;2.97;;;;;;;7.64;84.15;103024.88;6247955;22;20074;-82
2023/05/27 02:25:19;;;;;;;8.70;3.38;;;;;;;7.61;83.97;103022.19;6249813;22;20013;-82
2023/05/27 02:27:48;;;;;;;8.93;3.17;;;;;;;7.59;83.59;103019.16;6249278;22;20044;-82
2023/05/27 02:30:15;;;;;;;12.25;3.80;;;;;;;7.57;84.32;103024.06;6248027;22;20021;-81
2023/05/27 02:32:43;;;;;;;8.98;3.90;;;;;;;7.50;84.43;103011.50;6222675;22;20020;-82
2023/05/27 02:35:14;;;;;;;12.77;3.40;;;;;;;7.48;84.40;103005.78;6222765;22;20048;-81
2023/05/27 02:37:41;;;;;;;15.48;3.35;;;;;;;7.47;84.83;103008.81;6248245;22;20020;-81
2023/05/27 02:40:09;;;;;;;8.82;3.65;;;;;;;7.45;84.90;103005.75;6249589;22;20041;-82
2023/05/27 02:42:35;;;;;;;8.93;3.05;;;;;;;7.41;85.31;103011.00;6247907;22;20017;-82
2023/05/27 02:45:04;;;;;;;10.23;3.22;;;;;;;7.38;85.49;103003.78;6248202;22;20037;-81
2023/05/27 02:47:31;;;;;;;7.93;3.40;;;;;;;7.37;85.75;103010.19;6248352;22;20178;-82
2023/05/27 02:49:57;;;;;;;8.93;3.33;;;;;;;7.34;85.98;103011.69;6247982;22;20028;-82
2023/05/27 02:52:24;;;;;;;11.82;3.88;;;;;;;7.32;85.99;103003.34;6247815;22;20040;-81
2023/05/27 02:54:52;;;;;;;17.10;4.03;;;;;;;7.29;86.09;103004.06;6249576;22;20023;-81
2023/05/27 02:57:19;;;;;;;7.25;3.28;;;;;;;7.27;86.24;103003.66;6246485;22;20016;-81
2023/05/27 02:59:46;;;;;;;13.88;3.53;;;;;;;7.25;86.81;103005.91;6248231;22;20052;-81
2023/05/27 03:02:12;;;;;;;8.43;3.33;;;;;;;7.24;86.63;103006.25;6247783;22;20095;-81
2023/05/27 03:04:39;;;;;;;11.13;3.58;;;;;;;7.21;86.77;103012.28;6249684;22;20016;-81
2023/05/27 03:07:06;;;;;;;13.48;3.30;;;;;;;7.20;86.97;103010.75;6249601;22;20067;-81
2023/05/27 03:09:33;;;;;;;13.35;4.30;;;;;;;7.17;86.96;103016.78;6249998;22;20469;-81
2023/05/27 03:12:00;;;;;;;10.20;3.58;;;;;;;7.16;87.18;103016.03;6248934;22;20027;-82
2023/05/27 03:14:28;;;;;;;9.85;3.38;;;;;;;7.13;86.84;103011.47;6247667;22;20480;-81
2023/05/27 03:16:55;;;;;;;7.82;3.08;;;;;;;7.11;87.12;103015.59;6222351;22;20099;-81
2023/05/27 03:19:21;;;;;;;7.72;3.30;;;;;;;7.08;87.27;103008.34;6249587;22;20100;-81
2023/05/27 03:21:49;;;;;;;10.48;3.15;;;;;;;7.09;87.32;103017.81;6248858;22;20012;-81
2023/05/27 03:24:18;;;;;;;11.88;3.42;;;;;;;7.06;87.52;103018.53;6247909;22;20518;-81
2023/05/27 03:26:45;;;;;;;12.48;4.03;;;;;;;7.06;87.55;103018.53;6247012;22;20016;-82
2023/05/27 03:29:12;;;;;;;12.75;3.35;;;;;;;7.04;87.34;103018.91;6247117;22;20391;-81
2023/05/27 03:31:39;;;;;;;7.53;3.85;;;;;;;7.02;87.44;103011.31;6222412;22;20025;-81
2023/05/27 03:34:10;;;;;;;12.27;3.40;;;;;;;7.00;87.71;103005.63;6247159;22;20013;-81
2023/05/27 03:36:39;;;;;;;8.75;3.42;;;;;;;6.99;87.67;103005.97;6246928;22;20650;-81
2023/05/27 03:39:06;;;;;;;10.00;3.42;;;;;;;6.96;87.93;102999.50;6246990;22;20021;-81
2023/05/27 03:41:35;;;;;;;11.52;3.38;;;;;;;6.97;87.94;102998.38;6246995;22;20051;-81
2023/05/27 03:44:01;;;;;;;10.45;3.28;;;;;;;6.96;87.76;103002.16;6247808;22;20047;-81
2023/05/27 03:46:28;;;;;;;8.80;3.55;;;;;;;6.96;87.44;103004.03;6249311;22;20024;-81
2023/05/27 03:48:55;;;;;;;11.20;3.35;;;;;;;6.95;87.95;103005.16;6247377;22;20466;-81
2023/05/27 03:51:22;;;;;;;14.57;3.80;;;;;;;6.94;88.15;102998.34;6247382;22;20067;-81
2023/05/27 03:53:50;;;;;;;10.82;3.97;;;;;;;6.95;88.18;102991.91;6247314;22;20020;-81
2023/05/27 03:56:17;;;;;;;7.15;3.10;;;;;;;6.97;88.20;102989.69;6249233;22;20013;-81
2023/05/27 03:58:44;;;;;;;9.23;3.53;;;;;;;6.98;88.35;102988.56;6248700;22;20021;-81
2023/05/27 04:01:12;;;;;;;11.10;3.60;;;;;;;6.98;88.28;102991.97;6247480;22;20021;-81
2023/05/27 04:03:42;;;;;;;7.85;3.58;;;;;;;7.00;88.31;102988.97;6247645;22;20075;-81
2023/05/27 04:06:09;;;;;;;14.63;3.78;;;;;;;7.01;88.44;102987.84;6247422;22;20103;-81
2023/05/27 04:08:37;;;;;;;13.30;3.63;;;;;;;7.00;88.48;102987.06;6249033;22;20021;-81
2023/05/27 04:11:04;;;;;;;11.25;3.83;;;;;;;7.07;88.50;102988.28;6247299;22;20021;-81
2023/05/27 04:13:30;;;;;;;15.70;4.43;;;;;;;7.10;88.12;102990.22;6249464;22;20016;-81
2023/05/27 04:15:59;;;;;;;9.02;3.38;;;;;;;7.11;88.32;102992.50;6248920;22;20017;-81
2023/05/27 04:18:25;;;;;;;8.48;3.55;;;;;;;7.14;88.37;102985.72;6249045;22;20070;-80
2023/05/27 04:20:52;;;;;;;10.02;3.63;;;;;;;7.18;88.21;102975.94;6249240;22;20064;-81
2023/05/27 04:23:19;;;;;;;16.10;4.50;;;;;;;7.20;88.29;102982.38;6246603;22;20457;-80
2023/05/27 04:25:48;;;;;;;15.35;4.07;;;;;;;7.23;88.22;102983.53;6247320;22;20041;-81
2023/05/27 04:28:16;;;;;;;11.77;3.40;;;;;;;7.29;88.10;102988.16;6247109;22;20020;-80
2023/05/27 04:30:45;;;;;;;13.10;3.28;;;;;;;7.35;87.89;102991.25;6247003;22;20404;-80
2023/05/27 04:33:19;;;;;;;15.77;3.65;;;;;;;7.38;87.85;102984.47;6247881;22;20047;-81
2023/05/27 04:35:47;;;;;;;15.77;3.53;;;;;;;7.45;87.90;102990.59;6248314;22;20027;-80
2023/05/27 04:38:16;;;;;;;10.88;4.50;;;;;;;7.59;88.14;102982.81;6247739;22;20358;-81
2023/05/27 04:40:55;;;;;;;8.18;3.85;;;;;;;8.19;86.15;102981.78;6250303;22;20023;-81
2023/05/27 04:43:42;;;;;;;7.30;3.67;;;;;;;8.19;85.37;102976.47;6250505;22;20025;-81
2023/05/27 04:46:12;;;;;;;;;;;;;;;8.58;85.42;102982.81;6249596;22;20023;-80
2023/05/27 04:48:40;;;;;;;9.82;3.72;;;;;;;8.80;84.04;102981.03;6223457;22;19978;-81
2023/05/27 04:51:07;;;;;;;10.50;4.00;;;;;;;10.06;80.85;102972.91;6248514;22;20016;-81
2023/05/27 04:53:34;;;;;;;12.70;4.13;;;;;;;10.30;77.70;102976.72;6248347;22;20020;-81
2023/05/27 04:56:01;;;;;;;13.38;3.55;;;;;;;10.79;76.02;102969.75;6248720;22;20028;-81
2023/05/27 04:58:29;;;;;;;18.42;3.92;;;;;;;12.00;71.46;102975.84;6248117;22;20035;-81
2023/05/27 05:00:57;;;;;;;12.35;3.88;;;;;;;13.24;66.97;102978.28;6248865;22;20096;-80
2023/05/27 05:03:39;;;;;;;10.90;4.28;;;;;;;14.07;63.17;102967.81;6250192;22;20424;-81
2023/05/27 05:06:07;;;;;;;13.38;3.88;;;;;;;14.86;60.22;102971.25;6248093;22;20450;-81
2023/05/27 05:08:33;;;;;;;16.70;4.72;;;;;;;15.49;58.12;102976.41;6248197;22;20044;-82
2023/05/27 05:11:00;;;;;;;12.98;3.72;;;;;;;15.99;56.19;102967.88;6250355;22;20108;-82
2023/05/27 05:13:28;;;;;;;7.88;4.20;;;;;;;16.34;54.59;102981.56;6248241;22;20413;-83
2023/05/27 05:15:55;;;;;;;12.48;3.97;;;;;;;16.69;53.60;102969.09;6248485;22;20017;-81
2023/05/27 05:18:22;;;;;;;13.75;4.05;;;;;;;17.21;51.94;102984.81;6248637;22;20552;-82
2023/05/27 05:20:49;;;;;;;10.20;3.85;;;;;;;17.60;50.75;102982.81;6223045;22;20017;-81
2023/05/27 05:23:24;;;;;;;16.25;4.32;;;;;;;17.79;49.98;102981.09;6248486;22;20021;-81
2023/05/27 05:25:57;;;;;;;8.60;3.83;;;;;;;18.05;49.42;102979.81;6250400;22;20013;-81
2023/05/27 05:28:25;;;;;;;13.35;4.03;;;;;;;17.67;49.06;102978.00;6248867;22;20029;-82
2023/05/27 05:30:51;;;;;;;9.48;3.53;;;;;;;17.43;49.67;102971.47;6248925;22;20075;-84
2023/05/27 05:33:18;;;;;;;18.60;4.45;;;;;;;17.41;49.65;102973.84;6248305;22;20069;-81
2023/05/27 05:35:49;;;;;;;13.73;3.90;;;;;;;17.09;50.40;102960.63;6247852;22;20016;-81
2023/05/27 05:38:27;;;;;;;9.50;4.20;;;;;;;17.39;50.55;102960.03;6248282;22;20417;-81
2023/05/27 05:40:54;;;;;;;14.90;3.72;;;;;;;17.59;49.74;102962.50;6223223;22;20478;-82
2023/05/27 05:43:22;;;;;;;12.23;4.40;;;;;;;17.47;49.85;102961.34;6248088;22;20027;-82
2023/05/27 05:45:50;;;;;;;11.90;3.95;;;;;;;17.44;50.28;102961.44;6248275;22;20023;-82
2023/05/27 05:48:18;;;;;;;14.68;3.55;;;;;;;16.79;51.77;102968.03;6247963;22;20031;-83
2023/05/27 05:50:45;;;;;;;9.82;4.20;;;;;;;16.62;52.36;102964.66;6247634;22;20051;-82
2023/05/27 05:53:12;;;;;;;10.38;4.00;;;;;;;16.73;52.66;102964.38;6249987;22;20012;-82
2023/05/27 05:55:40;;;;;;;14.35;4.15;;;;;;;16.86;52.29;102964.38;6247771;22;20466;-81
2023/05/27 05:58:07;;;;;;;16.48;4.68;;;;;;;16.30;52.85;102956.72;6247822;22;20072;-84
2023/05/27 06:00:33;;;;;;;16.75;4.10;;;;;;;16.20;54.47;102965.81;6223523;22;20075;-82
2023/05/27 06:03:20;;;;;;;11.77;3.42;;;;;;;15.86;55.01;102963.66;6248507;22;20083;-80
2023/05/27 06:05:51;;;;;;;9.97;4.13;;;;;;;15.67;55.57;102957.19;6247365;22;20095;-79
2023/05/27 06:08:18;;;;;;;14.45;4.68;;;;;;;15.79;55.91;102959.19;6247959;22;20021;-79
2023/05/27 06:10:54;;;;;;;13.07;4.03;;;;;;;15.77;55.96;102955.44;6247833;22;20454;-79
2023/05/27 06:13:21;;;;;;;11.65;4.10;;;;;;;15.59;56.54;102945.91;6247753;22;20401;-79
2023/05/27 06:15:50;;;;;;;12.05;3.88;;;;;;;15.55;56.77;102947.88;6247684;22;20020;-79
2023/05/27 06:18:17;;;;;;;10.77;3.78;;;;;;;15.68;57.13;102943.34;6247853;22;20021;-79
2023/05/27 06:20:44;;;;;;;8.50;3.92;;;;;;;15.39;57.26;102945.19;6248034;22;20024;-79
2023/05/27 06:23:11;;;;;;;10.25;3.53;;;;;;;15.43;57.69;102943.19;6221354;22;20424;-79
2023/05/27 06:25:56;;;;;;;10.88;4.25;;;;;;;15.48;58.17;102931.94;6248604;22;20021;-83
2023/05/27 06:28:25;;;;;;;15.70;4.38;;;;;;;15.51;58.00;102922.28;6246069;22;20028;-81
2023/05/27 06:30:52;;;;;;;18.45;3.92;;;;;;;15.41;58.52;102926.75;6248499;22;20111;-80
2023/05/27 06:33:19;;;;;;;19.05;4.22;;;;;;;15.50;58.83;102924.22;6248159;22;20020;-79
2023/05/27 06:35:46;;;;;;;10.38;3.70;;;;;;;15.42;58.76;102920.19;6248512;22;20405;-82
2023/05/27 06:38:13;;;;;;;11.30;4.05;;;;;;;15.41;58.96;102915.25;6250611;22;20016;-79
2023/05/27 06:40:40;;;;;;;12.75;4.43;;;;;;;15.53;58.82;102919.94;6248527;22;20017;-78
2023/05/27 06:43:07;;;;;;;15.93;4.47;;;;;;;15.50;58.68;102916.16;6248338;22;20370;-79
2023/05/27 06:46:00;;;;;;;13.85;4.57;;;;;;;15.68;58.72;102918.44;6247234;22;20020;-79
2023/05/27 06:48:59;;;;;;;12.40;3.95;;;;;;;15.82;59.03;102918.06;6243566;22;20021;-78
2023/05/27 06:51:28;;;;;;;20.15;4.30;;;;;;;15.97;58.33;102913.84;6248281;22;20021;-79
2023/05/27 06:53:56;;;;;;;19.38;4.00;;;;;;;16.10;57.37;102913.88;6248708;22;20027;-80
2023/05/27 06:56:33;;;;;;;11.68;3.83;;;;;;;16.09;57.07;102911.59;6225188;22;20013;-79
2023/05/27 06:59:20;;;;;;;12.25;4.50;;;;;;;16.11;57.19;102910.00;6249656;22;20021;-78
2023/05/27 07:01:47;;;;;;;15.32;4.40;;;;;;;16.10;57.33;102900.44;6248649;22;20016;-80
2023/05/27 07:04:16;;;;;;;16.40;4.25;;;;;;;16.12;57.06;102897.31;6222940;22;20465;-81
2023/05/27 07:06:50;;;;;;;11.98;4.03;;;;;;;16.16;57.12;102898.75;6249066;22;20071;-82
2023/05/27 07:09:17;;;;;;;12.00;4.40;;;;;;;16.27;57.26;102890.38;6248721;22;20021;-82
2023/05/27 07:11:44;;;;;;;11.63;4.22;;;;;;;16.39;57.91;102894.28;6248781;22;20450;-83
2023/05/27 07:14:30;;;;;;;17.95;4.88;;;;;;;16.58;56.47;102898.72;6248491;22;20095;-81
2023/05/27 07:16:57;;;;;;;14.70;4.25;;;;;;;16.56;56.94;102898.38;6248673;22;20016;-83
2023/05/27 07:19:23;;;;;;;10.52;4.30;;;;;;;16.80;56.42;102894.22;6248734;22;20041;-81
2023/05/27 07:21:54;;;;;;;11.52;4.57;;;;;;;16.88;55.97;102884.75;6249085;22;20021;-81
2023/05/27 07:24:23;;;;;;;17.63;4.63;;;;;;;17.00;56.09;102892.06;6248434;22;20017;-81
2023/05/27 07:26:52;;;;;;;12.68;4.40;;;;;;;17.31;54.69;102888.78;6248368;22;20477;-82
2023/05/27 07:29:20;;;;;;;8.80;3.65;;;;;;;17.45;53.76;102893.69;6248037;22;20107;-83
2023/05/27 07:31:53;;;;;;;15.93;4.80;;;;;;;17.33;53.93;102892.53;6249943;22;20051;-87
2023/05/27 07:34:24;;;;;;;15.63;4.35;;;;;;;17.38;53.86;102891.25;6249794;22;20386;-88
2023/05/27 07:36:51;;;;;;;18.92;5.05;;;;;;;17.62;53.97;102886.19;6251159;22;20036;-89
2023/05/27 07:39:18;;;;;;;9.90;4.32;;;;;;;17.75;53.37;102883.50;6251377;22;20035;-88
2023/05/27 07:41:45;;;;;;;15.65;4.55;;;;;;;17.91;52.44;102881.38;6249836;22;20013;-81
2023/05/27 07:44:11;;;;;;;9.65;4.05;;;;;;;18.15;51.90;102883.59;6223372;22;20016;-82
2023/05/27 07:46:38;;;;;;;11.68;4.35;;;;;;;18.46;51.92;102886.31;6248239;22;20017;-82
2023/05/27 07:49:05;;;;;;;14.73;4.25;;;;;;;18.63;50.83;102882.97;6248289;22;20024;-83
2023/05/27 07:51:37;;;;;;;12.60;4.65;;;;;;;18.72;50.31;102874.16;6248548;22;20449;-82
2023/05/27 07:54:04;;;;;;;12.65;4.28;;;;;;;18.83;49.69;102879.13;6248028;22;20067;-83
2023/05/27 07:56:31;;;;;;;15.82;4.45;;;;;;;18.89;50.18;102856.50;6248651;22;20016;-82
2023/05/27 07:58:57;;;;;;;12.95;4.43;;;;;;;19.07;50.41;102860.47;6250027;22;20422;-83
2023/05/27 08:01:30;;;;;;;11.00;4.75;;;;;;;19.21;49.21;102860.59;6246133;22;20051;-80
2023/05/27 08:03:57;;;;;;;10.20;4.20;;;;;;;19.15;48.39;102862.44;6221786;22;20020;-80
2023/05/27 08:06:50;;;;;;;11.43;4.90;;;;;;;19.19;49.07;102857.59;6248789;22;20071;-84
2023/05/27 08:09:39;;;;;;;11.63;4.13;;;;;;;19.32;48.23;102846.66;6246864;22;20024;-85
2023/05/27 08:12:24;;;;;;;14.45;4.25;;;;;;;19.37;49.19;102848.78;6251468;22;20069;-84
2023/05/27 08:15:17;;;;;;;12.40;4.03;;;;;;;19.68;48.20;102842.47;6246561;22;20025;-82
2023/05/27 08:18:14;;;;;;;14.30;4.80;;;;;;;19.78;46.96;102838.56;6248732;22;20016;-80
2023/05/27 08:20:51;;;;;;;9.55;4.30;;;;;;;19.50;47.32;102827.78;6250214;22;20055;-81
2023/05/27 08:23:48;;;;;;;15.07;4.65;;;;;;;19.38;48.00;102822.53;6186383;23;20097;-79
2023/05/27 08:26:44;;;;;;;15.60;4.28;;;;;;;19.29;48.35;102824.03;6125323;23;20460;-81
2023/05/27 08:29:17;;;;;;;13.63;4.97;;;;;;;19.32;48.12;102830.47;6125533;23;20114;-80
2023/05/27 08:32:02;;;;;;;11.18;5.15;;;;;;;19.49;47.52;102822.81;6126408;23;20031;-80
2023/05/27 08:34:28;;;;;;;13.07;4.97;;;;;;;19.56;47.93;102828.69;6101788;23;20057;-80
2023/05/27 08:36:55;;;;;;;12.13;4.78;;;;;;;19.64;46.62;102827.16;6126444;23;20083;-81
2023/05/27 08:39:23;;;;;;;12.68;5.07;;;;;;;19.81;46.39;102822.19;6125883;23;20061;-81
2023/05/27 08:42:02;;;;;;;17.40;5.18;;;;;;;20.05;45.86;102819.56;6126693;23;20079;-81
2023/05/27 08:44:29;;;;;;;14.75;4.95;;;;;;;20.21;46.30;102813.81;6125517;23;20050;-80
2023/05/27 08:47:03;;;;;;;16.38;5.07;;;;;;;20.27;45.55;102809.28;6126520;23;20120;-81
2023/05/27 08:49:31;;;;;;;14.55;5.25;;;;;;;20.36;44.93;102807.75;6126494;23;20022;-80
2023/05/27 08:51:59;;;;;;;15.70;4.78;;;;;;;20.63;45.81;102802.22;6126148;23;20014;-80
2023/05/27 08:54:27;;;;;;;15.00;5.00;;;;;;;20.78;44.83;102797.63;6125868;23;20472;-79
2023/05/27 08:57:00;;;;;;;13.07;4.90;;;;;;;20.51;44.62;102800.47;6125993;23;20018;-80
2023/05/27 08:59:27;;;;;;;13.75;5.93;;;;;;;20.41;44.97;102793.59;6071679;23;20023;-80
2023/05/27 09:01:55;;;;;;;12.52;5.22;;;;;;;20.66;44.36;102787.75;6072904;23;20117;-79
2023/05/27 09:04:22;;;;;;;11.77;4.57;;;;;;;20.85;44.52;102794.53;6212814;23;20097;-79
2023/05/27 09:06:49;;;;;;;16.58;5.82;;;;;;;20.85;43.67;102785.66;6192468;23;20017;-80
2023/05/27 09:09:18;;;;;;;9.45;5.35;;;;;;;21.16;44.13;102774.47;6218599;23;20065;-80
2023/05/27 09:11:45;;;;;;;15.63;5.35;;;;;;;21.28;43.18;102768.78;6219061;23;20403;-79
2023/05/27 09:14:22;;;;;;;13.60;5.78;;;;;;;21.45;44.05;102771.06;6217654;23;20514;-80
2023/05/27 09:16:49;;;;;;;11.70;5.30;;;;;;;21.54;43.62;102773.69;6219185;23;20024;-80
2023/05/27 09:19:17;;;;;;;12.77;4.85;;;;;;;21.55;42.75;102775.94;6219095;23;20017;-83
2023/05/27 09:21:44;;;;;;;16.15;5.20;;;;;;;21.69;41.50;102769.00;6221112;23;20001;-84
2023/05/27 09:24:11;;;;;;;10.70;5.00;;;;;;;21.70;42.09;102767.03;6220350;23;20020;-85
2023/05/27 09:26:38;;;;;;;17.70;5.50;;;;;;;21.72;40.54;102765.34;6220320;23;20470;-81
2023/05/27 09:29:08;;;;;;;11.98;4.78;;;;;;;21.72;41.68;102757.22;6219156;23;20023;-81
2023/05/27 09:31:41;;;;;;;16.27;5.13;;;;;;;22.00;41.41;102765.75;6220064;23;20478;-84
2023/05/27 09:34:15;;;;;;;19.58;5.68;;;;;;;21.80;42.16;102761.03;6193560;23;20021;-87
2023/05/27 09:36:44;;;;;;;15.50;5.65;;;;;;;21.94;41.38;102751.41;6195294;23;20420;-89
2023/05/27 09:39:15;;;;;;;14.80;5.05;;;;;;;21.93;41.12;102750.66;6221377;23;20013;-88
2023/05/27 09:41:42;;;;;;;16.17;5.68;;;;;;;22.10;41.09;102752.88;6219849;23;20092;-88
2023/05/27 09:44:09;;;;;;;15.25;5.18;;;;;;;21.89;40.83;102747.38;6218536;23;20537;-88
2023/05/27 09:46:36;;;;;;;13.32;5.13;;;;;;;21.94;40.99;102748.69;6221649;23;20040;-88
2023/05/27 09:49:03;;;;;;;12.82;5.18;;;;;;;22.06;41.34;102744.94;6221426;23;20435;-84
2023/05/27 09:51:32;;;;;;;13.43;5.25;;;;;;;22.04;41.05;102746.59;6169149;23;20021;-84
2023/05/27 09:53:58;;;;;;;14.63;5.40;;;;;;;22.20;40.49;102741.44;6220247;23;20146;-83
2023/05/27 09:56:27;;;;;;;15.23;5.35;;;;;;;22.57;40.80;102741.66;6219474;23;20523;-83
2023/05/27 09:58:57;;;;;;;11.20;5.10;;;;;;;22.79;40.68;102738.44;6242485;22;20025;-88
2023/05/27 10:01:29;;;;;;;11.80;4.75;;;;;;;22.84;40.08;102742.47;6251177;22;20395;-86
2023/05/27 10:03:56;;;;;;;18.08;5.10;;;;;;;22.52;38.93;102739.59;6250667;22;20375;-81
2023/05/27 10:06:29;;;;;;;14.38;5.38;;;;;;;22.40;39.12;102731.78;6251326;22;20012;-81
2023/05/27 10:08:56;;;;;;;16.98;5.20;;;;;;;22.48;39.56;102732.88;6250735;22;20059;-85
2023/05/27 10:11:23;;;;;;;12.00;5.55;;;;;;;22.37;39.73;102728.09;6248121;22;20024;-81
2023/05/27 10:13:50;;;;;;;13.63;4.93;;;;;;;22.14;40.48;102726.28;6248820;22;20518;-85
2023/05/27 10:16:25;;;;;;;12.70;5.32;;;;;;;22.43;39.89;102722.72;6250859;22;20044;-81
2023/05/27 10:18:56;;;;;;;14.80;5.43;;;;;;;22.72;39.11;102717.16;6250968;22;20012;-84
2023/05/27 10:21:27;;;;;;;18.92;5.68;;;;;;;22.72;38.84;102714.44;6250988;22;20017;-84
2023/05/27 10:23:58;;;;;;;11.23;5.20;;;;;;;22.87;37.82;102706.94;6250866;22;20017;-84
2023/05/27 10:26:45;;;;;;;13.77;4.82;;;;;;;23.33;37.96;102705.38;6250105;22;20017;-83
2023/05/27 10:29:14;;;;;;;11.13;5.05;;;;;;;23.22;36.38;102706.78;6251840;22;20470;-85
2023/05/27 10:31:49;;;;;;;15.05;4.90;;;;;;;23.29;37.16;102700.16;6224569;22;20028;-84
2023/05/27 10:34:19;;;;;;;13.15;5.47;;;;;;;23.29;36.59;102698.19;6250443;22;20021;-84
2023/05/27 10:36:46;;;;;;;15.75;5.18;;;;;;;23.55;37.41;102697.44;6251288;22;20009;-85
2023/05/27 10:39:17;;;;;;;19.10;6.05;;;;;;;23.72;36.44;102702.97;6250744;22;20092;-84
2023/05/27 10:41:43;;;;;;;11.95;4.75;;;;;;;23.68;35.62;102692.31;6250226;22;20017;-85
2023/05/27 10:44:10;;;;;;;10.75;4.88;;;;;;;23.94;35.73;102694.97;6249950;22;20013;-79
2023/05/27 10:46:41;;;;;;;15.77;5.35;;;;;;;23.99;36.14;102688.06;6250849;22;20012;-83
2023/05/27 10:49:22;;;;;;;12.82;4.95;;;;;;;24.25;36.30;102691.41;6250457;22;20024;-86
2023/05/27 10:51:48;;;;;;;16.25;5.22;;;;;;;24.16;34.48;102683.44;6251149;22;20017;-84
2023/05/27 10:54:16;;;;;;;13.10;5.13;;;;;;;24.10;35.57;102682.66;6250239;22;20017;-85
2023/05/27 10:56:56;;;;;;;12.13;5.40;;;;;;;24.41;34.69;102673.66;6251043;22;20021;-85
2023/05/27 10:59:23;;;;;;;8.73;4.38;;;;;;;24.18;34.46;102676.28;6250202;22;20019;-85
2023/05/27 11:01:53;;;;;;;9.05;4.80;;;;;;;24.30;34.20;102668.19;6250491;22;20059;-87
2023/05/27 11:04:21;;;;;;;8.27;4.30;;;;;;;24.30;32.57;102666.22;6249449;22;20012;-85
2023/05/27 11:07:00;;;;;;;11.95;4.95;;;;;;;24.47;33.02;102655.34;6250863;22;20462;-85
2023/05/27 11:09:30;;;;;;;13.32;5.13;;;;;;;24.37;32.51;102663.03;6250415;22;20447;-85
2023/05/27 11:12:02;;;;;;;12.05;5.10;;;;;;;24.55;33.04;102667.25;6250992;22;20041;-86
2023/05/27 11:14:30;;;;;;;8.75;4.45;;;;;;;24.53;33.31;102654.13;6248501;22;20016;-82
2023/05/27 11:16:56;;;;;;;10.82;5.03;;;;;;;24.60;32.05;102650.94;6250712;22;20017;-82
2023/05/27 11:19:23;;;;;;;9.93;4.75;;;;;;;24.88;32.14;102642.78;6249652;22;20331;-82
2023/05/27 11:21:49;;;;;;;9.98;5.15;;;;;;;24.80;31.22;102636.34;6250265;22;20017;-81
2023/05/27 11:24:16;;;;;;;10.00;4.32;;;;;;;24.82;31.51;102622.22;6249654;22;20019;-82
2023/05/27 11:26:47;;;;;;;13.13;4.68;;;;;;;24.94;32.76;102624.47;6250301;22;20016;-82
2023/05/27 11:29:14;;;;;;;8.57;5.03;;;;;;;24.91;32.59;102622.75;6249599;22;20020;-81
2023/05/27 11:31:45;;;;;;;12.13;4.88;;;;;;;24.80;33.39;102621.97;6250544;22;20017;-82
2023/05/27 11:34:20;;;;;;;13.00;5.30;;;;;;;25.04;33.03;102610.63;6249858;22;20027;-82